sensor_id;sensor_type;location;lat;lon;timestamp;P1;durP1;ratioP1;P2;durP2;ratioP2
65393;SDS011;52002;49.760;6.512;2023-08-30T00:00:38;2.80;;;2.10;;
65393;SDS011;52002;49.760;6.512;2023-08-30T00:03:04;3.00;;;1.40;;
65393;SDS011;52002;49.760;6.512;2023-08-30T00:05:29;2.30;;;1.30;;
65393;SDS011;52002;49.760;6.512;2023-08-30T00:07:54;3.60;;;1.60;;
65393;SDS011;52002;49.760;6.512;2023-08-30T00:10:20;2.10;;;1.50;;
65393;SDS011;52002;49.760;6.512;2023-08-30T00:12:46;4.30;;;1.70;;
65393;SDS011;52002;49.760;6.512;2023-08-30T00:15:11;5.70;;;2.10;;
65393;SDS011;52002;49.760;6.512;2023-08-30T00:17:36;3.40;;;1.50;;
65393;SDS011;52002;49.760;6.512;2023-08-30T00:20:02;1.60;;;1.50;;
65393;SDS011;52002;49.760;6.512;2023-08-30T00:22:28;1.90;;;1.70;;
65393;SDS011;52002;49.760;6.512;2023-08-30T00:24:53;3.50;;;1.50;;
65393;SDS011;52002;49.760;6.512;2023-08-30T00:27:19;3.10;;;1.50;;
65393;SDS011;52002;49.760;6.512;2023-08-30T00:29:45;2.60;;;1.50;;
65393;SDS011;52002;49.760;6.512;2023-08-30T00:32:11;1.50;;;1.40;;
65393;SDS011;52002;49.760;6.512;2023-08-30T00:34:37;2.50;;;1.40;;
65393;SDS011;52002;49.760;6.512;2023-08-30T00:37:02;1.90;;;1.70;;
65393;SDS011;52002;49.760;6.512;2023-08-30T00:39:28;1.90;;;1.50;;
65393;SDS011;52002;49.760;6.512;2023-08-30T00:41:53;4.30;;;1.70;;
65393;SDS011;52002;49.760;6.512;2023-08-30T00:44:18;2.00;;;1.30;;
65393;SDS011;52002;49.760;6.512;2023-08-30T00:46:44;2.20;;;1.40;;
65393;SDS011;52002;49.760;6.512;2023-08-30T00:49:09;2.30;;;1.70;;
65393;SDS011;52002;49.760;6.512;2023-08-30T00:51:35;5.10;;;1.40;;
65393;SDS011;52002;49.760;6.512;2023-08-30T00:54:01;1.40;;;1.30;;
65393;SDS011;52002;49.760;6.512;2023-08-30T00:56:27;1.90;;;1.50;;
65393;SDS011;52002;49.760;6.512;2023-08-30T00:58:53;2.50;;;1.90;;
65393;SDS011;52002;49.760;6.512;2023-08-30T01:01:19;4.30;;;1.80;;
65393;SDS011;52002;49.760;6.512;2023-08-30T01:03:44;2.80;;;2.10;;
65393;SDS011;52002;49.760;6.512;2023-08-30T01:06:10;2.40;;;2.00;;
65393;SDS011;52002;49.760;6.512;2023-08-30T01:08:36;2.60;;;2.20;;
65393;SDS011;52002;49.760;6.512;2023-08-30T01:11:13;7.40;;;2.20;;
65393;SDS011;52002;49.760;6.512;2023-08-30T01:13:45;5.50;;;2.30;;
65393;SDS011;52002;49.760;6.512;2023-08-30T01:16:18;2.80;;;2.50;;
65393;SDS011;52002;49.760;6.512;2023-08-30T01:18:46;7.00;;;2.40;;
65393;SDS011;52002;49.760;6.512;2023-08-30T01:21:14;2.70;;;2.40;;
65393;SDS011;52002;49.760;6.512;2023-08-30T01:23:58;2.20;;;1.80;;
65393;SDS011;52002;49.760;6.512;2023-08-30T01:29:15;5.00;;;3.00;;
65393;SDS011;52002;49.760;6.512;2023-08-30T01:31:43;5.70;;;3.30;;
65393;SDS011;52002;49.760;6.512;2023-08-30T01:34:11;9.00;;;3.30;;
65393;SDS011;52002;49.760;6.512;2023-08-30T01:36:40;3.80;;;3.00;;
65393;SDS011;52002;49.760;6.512;2023-08-30T01:39:08;4.40;;;3.20;;
65393;SDS011;52002;49.760;6.512;2023-08-30T01:41:35;4.00;;;3.50;;
65393;SDS011;52002;49.760;6.512;2023-08-30T01:44:02;3.50;;;2.90;;
65393;SDS011;52002;49.760;6.512;2023-08-30T01:46:30;4.90;;;4.00;;
65393;SDS011;52002;49.760;6.512;2023-08-30T01:48:58;3.60;;;3.30;;
65393;SDS011;52002;49.760;6.512;2023-08-30T01:51:25;4.70;;;3.30;;
65393;SDS011;52002;49.760;6.512;2023-08-30T01:53:51;3.90;;;3.20;;
65393;SDS011;52002;49.760;6.512;2023-08-30T01:56:18;2.90;;;2.60;;
65393;SDS011;52002;49.760;6.512;2023-08-30T01:58:43;3.00;;;2.80;;
65393;SDS011;52002;49.760;6.512;2023-08-30T02:01:08;3.00;;;2.70;;
65393;SDS011;52002;49.760;6.512;2023-08-30T02:03:34;3.90;;;3.10;;
65393;SDS011;52002;49.760;6.512;2023-08-30T02:06:07;3.10;;;2.80;;
65393;SDS011;52002;49.760;6.512;2023-08-30T02:08:50;5.00;;;3.30;;
65393;SDS011;52002;49.760;6.512;2023-08-30T02:11:22;3.70;;;3.40;;
65393;SDS011;52002;49.760;6.512;2023-08-30T02:13:51;6.20;;;3.50;;
65393;SDS011;52002;49.760;6.512;2023-08-30T02:16:19;4.10;;;3.50;;
65393;SDS011;52002;49.760;6.512;2023-08-30T02:18:46;4.00;;;3.30;;
65393;SDS011;52002;49.760;6.512;2023-08-30T02:21:12;5.90;;;4.00;;
65393;SDS011;52002;49.760;6.512;2023-08-30T02:23:38;5.20;;;4.20;;
65393;SDS011;52002;49.760;6.512;2023-08-30T02:26:03;4.60;;;4.10;;
65393;SDS011;52002;49.760;6.512;2023-08-30T02:28:28;4.60;;;3.90;;
65393;SDS011;52002;49.760;6.512;2023-08-30T02:30:54;5.00;;;4.30;;
65393;SDS011;52002;49.760;6.512;2023-08-30T02:33:19;4.20;;;3.70;;
65393;SDS011;52002;49.760;6.512;2023-08-30T02:35:45;5.70;;;4.30;;
65393;SDS011;52002;49.760;6.512;2023-08-30T02:38:10;5.10;;;4.20;;
65393;SDS011;52002;49.760;6.512;2023-08-30T02:40:36;4.90;;;4.00;;
65393;SDS011;52002;49.760;6.512;2023-08-30T02:43:01;5.50;;;4.40;;
65393;SDS011;52002;49.760;6.512;2023-08-30T02:45:26;6.20;;;4.50;;
65393;SDS011;52002;49.760;6.512;2023-08-30T02:47:54;5.50;;;4.60;;
65393;SDS011;52002;49.760;6.512;2023-08-30T02:50:21;5.10;;;4.50;;
65393;SDS011;52002;49.760;6.512;2023-08-30T02:52:47;6.10;;;3.90;;
65393;SDS011;52002;49.760;6.512;2023-08-30T02:55:12;4.40;;;3.70;;
65393;SDS011;52002;49.760;6.512;2023-08-30T02:57:37;4.90;;;4.00;;
65393;SDS011;52002;49.760;6.512;2023-08-30T03:00:03;8.10;;;4.10;;
65393;SDS011;52002;49.760;6.512;2023-08-30T03:02:31;6.00;;;4.00;;
65393;SDS011;52002;49.760;6.512;2023-08-30T03:04:58;6.10;;;4.50;;
65393;SDS011;52002;49.760;6.512;2023-08-30T03:07:24;5.40;;;4.10;;
65393;SDS011;52002;49.760;6.512;2023-08-30T03:09:52;6.30;;;4.70;;
65393;SDS011;52002;49.760;6.512;2023-08-30T03:12:18;7.40;;;4.30;;
65393;SDS011;52002;49.760;6.512;2023-08-30T03:14:43;8.50;;;5.10;;
65393;SDS011;52002;49.760;6.512;2023-08-30T03:17:08;4.90;;;4.40;;
65393;SDS011;52002;49.760;6.512;2023-08-30T03:19:33;4.90;;;4.00;;
65393;SDS011;52002;49.760;6.512;2023-08-30T03:21:59;3.90;;;3.50;;
65393;SDS011;52002;49.760;6.512;2023-08-30T03:24:25;4.90;;;3.70;;
65393;SDS011;52002;49.760;6.512;2023-08-30T03:26:51;5.00;;;3.40;;
65393;SDS011;52002;49.760;6.512;2023-08-30T03:29:16;5.30;;;3.90;;
65393;SDS011;52002;49.760;6.512;2023-08-30T03:31:42;6.90;;;4.00;;
65393;SDS011;52002;49.760;6.512;2023-08-30T03:34:08;4.30;;;3.60;;
65393;SDS011;52002;49.760;6.512;2023-08-30T03:36:34;5.10;;;3.60;;
65393;SDS011;52002;49.760;6.512;2023-08-30T03:39:00;4.70;;;3.60;;
65393;SDS011;52002;49.760;6.512;2023-08-30T03:41:25;5.10;;;4.30;;
65393;SDS011;52002;49.760;6.512;2023-08-30T03:43:51;4.40;;;4.00;;
65393;SDS011;52002;49.760;6.512;2023-08-30T03:46:16;6.50;;;4.50;;
65393;SDS011;52002;49.760;6.512;2023-08-30T03:48:41;4.20;;;3.70;;
65393;SDS011;52002;49.760;6.512;2023-08-30T03:51:07;6.70;;;4.20;;
65393;SDS011;52002;49.760;6.512;2023-08-30T03:53:32;9.00;;;4.70;;
65393;SDS011;52002;49.760;6.512;2023-08-30T03:55:58;7.30;;;4.50;;
65393;SDS011;52002;49.760;6.512;2023-08-30T03:58:24;5.40;;;3.80;;
65393;SDS011;52002;49.760;6.512;2023-08-30T04:00:50;6.10;;;4.10;;
65393;SDS011;52002;49.760;6.512;2023-08-30T04:03:15;5.10;;;4.00;;
65393;SDS011;52002;49.760;6.512;2023-08-30T04:05:41;5.50;;;4.30;;
65393;SDS011;52002;49.760;6.512;2023-08-30T04:08:07;6.50;;;4.60;;
65393;SDS011;52002;49.760;6.512;2023-08-30T04:10:40;7.50;;;5.30;;
65393;SDS011;52002;49.760;6.512;2023-08-30T04:13:06;5.70;;;5.10;;
65393;SDS011;52002;49.760;6.512;2023-08-30T04:15:34;5.90;;;4.60;;
65393;SDS011;52002;49.760;6.512;2023-08-30T04:18:00;8.30;;;4.70;;
65393;SDS011;52002;49.760;6.512;2023-08-30T04:20:26;5.80;;;4.90;;
65393;SDS011;52002;49.760;6.512;2023-08-30T04:22:51;6.60;;;4.80;;
65393;SDS011;52002;49.760;6.512;2023-08-30T04:25:18;5.40;;;4.80;;
65393;SDS011;52002;49.760;6.512;2023-08-30T04:27:43;7.00;;;4.90;;
65393;SDS011;52002;49.760;6.512;2023-08-30T04:30:09;5.40;;;4.60;;
65393;SDS011;52002;49.760;6.512;2023-08-30T04:32:35;5.90;;;4.80;;
65393;SDS011;52002;49.760;6.512;2023-08-30T04:35:00;6.00;;;4.90;;
65393;SDS011;52002;49.760;6.512;2023-08-30T04:37:29;6.30;;;4.90;;
65393;SDS011;52002;49.760;6.512;2023-08-30T04:39:56;10.30;;;5.40;;
65393;SDS011;52002;49.760;6.512;2023-08-30T04:42:22;8.40;;;5.20;;
65393;SDS011;52002;49.760;6.512;2023-08-30T04:44:47;5.50;;;4.90;;
65393;SDS011;52002;49.760;6.512;2023-08-30T04:47:12;6.40;;;4.80;;
65393;SDS011;52002;49.760;6.512;2023-08-30T04:49:38;6.10;;;5.00;;
65393;SDS011;52002;49.760;6.512;2023-08-30T04:52:03;5.60;;;5.00;;
65393;SDS011;52002;49.760;6.512;2023-08-30T04:54:29;5.60;;;4.80;;
65393;SDS011;52002;49.760;6.512;2023-08-30T04:56:55;7.50;;;5.20;;
65393;SDS011;52002;49.760;6.512;2023-08-30T04:59:20;6.10;;;4.70;;
65393;SDS011;52002;49.760;6.512;2023-08-30T05:01:45;12.20;;;4.90;;
65393;SDS011;52002;49.760;6.512;2023-08-30T05:04:11;6.70;;;5.00;;
65393;SDS011;52002;49.760;6.512;2023-08-30T05:06:36;6.60;;;5.00;;
65393;SDS011;52002;49.760;6.512;2023-08-30T05:09:01;6.80;;;5.10;;
65393;SDS011;52002;49.760;6.512;2023-08-30T05:11:27;7.30;;;5.90;;
65393;SDS011;52002;49.760;6.512;2023-08-30T05:13:53;5.90;;;5.20;;
65393;SDS011;52002;49.760;6.512;2023-08-30T05:16:20;11.40;;;5.70;;
65393;SDS011;52002;49.760;6.512;2023-08-30T05:18:45;6.40;;;5.40;;
65393;SDS011;52002;49.760;6.512;2023-08-30T05:21:12;5.80;;;4.80;;
65393;SDS011;52002;49.760;6.512;2023-08-30T05:23:38;6.80;;;5.20;;
65393;SDS011;52002;49.760;6.512;2023-08-30T05:26:06;6.40;;;5.10;;
65393;SDS011;52002;49.760;6.512;2023-08-30T05:28:32;6.70;;;5.30;;
65393;SDS011;52002;49.760;6.512;2023-08-30T05:30:57;7.50;;;5.20;;
65393;SDS011;52002;49.760;6.512;2023-08-30T05:33:23;7.50;;;5.00;;
65393;SDS011;52002;49.760;6.512;2023-08-30T05:35:48;12.50;;;5.60;;
65393;SDS011;52002;49.760;6.512;2023-08-30T05:38:13;5.50;;;4.70;;
65393;SDS011;52002;49.760;6.512;2023-08-30T05:40:38;10.90;;;5.30;;
65393;SDS011;52002;49.760;6.512;2023-08-30T05:43:07;9.30;;;5.30;;
65393;SDS011;52002;49.760;6.512;2023-08-30T05:45:33;8.20;;;5.50;;
65393;SDS011;52002;49.760;6.512;2023-08-30T05:47:58;7.10;;;5.80;;
65393;SDS011;52002;49.760;6.512;2023-08-30T05:50:23;6.10;;;4.90;;
65393;SDS011;52002;49.760;6.512;2023-08-30T05:52:48;7.60;;;5.20;;
65393;SDS011;52002;49.760;6.512;2023-08-30T05:55:14;8.30;;;5.50;;
65393;SDS011;52002;49.760;6.512;2023-08-30T05:57:39;9.50;;;5.50;;
65393;SDS011;52002;49.760;6.512;2023-08-30T06:00:05;5.80;;;4.60;;
65393;SDS011;52002;49.760;6.512;2023-08-30T06:02:31;6.60;;;4.60;;
65393;SDS011;52002;49.760;6.512;2023-08-30T06:04:56;7.20;;;4.70;;
65393;SDS011;52002;49.760;6.512;2023-08-30T06:07:21;5.80;;;5.10;;
65393;SDS011;52002;49.760;6.512;2023-08-30T06:09:47;6.90;;;4.80;;
65393;SDS011;52002;49.760;6.512;2023-08-30T06:12:12;12.90;;;5.20;;
65393;SDS011;52002;49.760;6.512;2023-08-30T06:14:38;6.30;;;5.20;;
65393;SDS011;52002;49.760;6.512;2023-08-30T06:17:03;5.80;;;5.00;;
65393;SDS011;52002;49.760;6.512;2023-08-30T06:19:28;7.10;;;5.30;;
65393;SDS011;52002;49.760;6.512;2023-08-30T06:21:54;7.20;;;5.20;;
65393;SDS011;52002;49.760;6.512;2023-08-30T06:24:19;9.70;;;5.40;;
65393;SDS011;52002;49.760;6.512;2023-08-30T06:26:44;7.60;;;5.40;;
65393;SDS011;52002;49.760;6.512;2023-08-30T06:29:10;9.70;;;5.50;;
65393;SDS011;52002;49.760;6.512;2023-08-30T06:31:35;7.70;;;5.20;;
65393;SDS011;52002;49.760;6.512;2023-08-30T06:34:00;7.10;;;5.40;;
65393;SDS011;52002;49.760;6.512;2023-08-30T06:36:26;10.90;;;5.40;;
65393;SDS011;52002;49.760;6.512;2023-08-30T06:38:51;10.80;;;5.60;;
65393;SDS011;52002;49.760;6.512;2023-08-30T06:41:16;9.70;;;6.20;;
65393;SDS011;52002;49.760;6.512;2023-08-30T06:43:41;7.90;;;6.10;;
65393;SDS011;52002;49.760;6.512;2023-08-30T06:46:07;7.90;;;5.90;;
65393;SDS011;52002;49.760;6.512;2023-08-30T06:48:32;9.00;;;6.70;;
65393;SDS011;52002;49.760;6.512;2023-08-30T06:50:58;10.80;;;7.00;;
65393;SDS011;52002;49.760;6.512;2023-08-30T06:53:25;7.20;;;6.20;;
65393;SDS011;52002;49.760;6.512;2023-08-30T06:56:00;9.60;;;5.90;;
65393;SDS011;52002;49.760;6.512;2023-08-30T06:58:27;7.50;;;5.80;;
65393;SDS011;52002;49.760;6.512;2023-08-30T07:00:52;10.00;;;6.70;;
65393;SDS011;52002;49.760;6.512;2023-08-30T07:03:18;11.20;;;5.80;;
65393;SDS011;52002;49.760;6.512;2023-08-30T07:05:44;10.30;;;6.20;;
65393;SDS011;52002;49.760;6.512;2023-08-30T07:08:09;9.60;;;6.90;;
65393;SDS011;52002;49.760;6.512;2023-08-30T07:10:35;8.40;;;6.20;;
65393;SDS011;52002;49.760;6.512;2023-08-30T07:13:00;12.10;;;7.10;;
65393;SDS011;52002;49.760;6.512;2023-08-30T07:15:26;11.90;;;7.20;;
65393;SDS011;52002;49.760;6.512;2023-08-30T07:17:51;13.30;;;7.40;;
65393;SDS011;52002;49.760;6.512;2023-08-30T07:20:16;12.80;;;6.70;;
65393;SDS011;52002;49.760;6.512;2023-08-30T07:22:42;10.60;;;6.90;;
65393;SDS011;52002;49.760;6.512;2023-08-30T07:25:08;11.10;;;6.80;;
65393;SDS011;52002;49.760;6.512;2023-08-30T07:27:35;10.50;;;7.60;;
65393;SDS011;52002;49.760;6.512;2023-08-30T07:30:01;14.60;;;8.00;;
65393;SDS011;52002;49.760;6.512;2023-08-30T07:32:26;12.00;;;8.20;;
65393;SDS011;52002;49.760;6.512;2023-08-30T07:34:52;13.60;;;7.80;;
65393;SDS011;52002;49.760;6.512;2023-08-30T07:37:21;9.80;;;6.80;;
65393;SDS011;52002;49.760;6.512;2023-08-30T07:39:47;14.30;;;6.70;;
65393;SDS011;52002;49.760;6.512;2023-08-30T07:42:13;13.80;;;7.10;;
65393;SDS011;52002;49.760;6.512;2023-08-30T07:44:40;11.80;;;7.20;;
65393;SDS011;52002;49.760;6.512;2023-08-30T07:47:05;12.50;;;7.70;;
65393;SDS011;52002;49.760;6.512;2023-08-30T07:49:30;13.90;;;8.10;;
65393;SDS011;52002;49.760;6.512;2023-08-30T07:51:56;18.60;;;9.00;;
65393;SDS011;52002;49.760;6.512;2023-08-30T07:54:21;16.10;;;7.90;;
65393;SDS011;52002;49.760;6.512;2023-08-30T07:56:46;12.40;;;7.80;;
65393;SDS011;52002;49.760;6.512;2023-08-30T07:59:12;11.40;;;7.10;;
65393;SDS011;52002;49.760;6.512;2023-08-30T08:01:37;13.20;;;7.30;;
65393;SDS011;52002;49.760;6.512;2023-08-30T08:04:03;12.70;;;7.70;;
65393;SDS011;52002;49.760;6.512;2023-08-30T08:06:28;13.30;;;7.60;;
65393;SDS011;52002;49.760;6.512;2023-08-30T08:08:53;13.20;;;7.80;;
65393;SDS011;52002;49.760;6.512;2023-08-30T08:11:19;10.50;;;7.00;;
65393;SDS011;52002;49.760;6.512;2023-08-30T08:13:44;22.50;;;8.10;;
65393;SDS011;52002;49.760;6.512;2023-08-30T08:16:10;9.80;;;7.40;;
65393;SDS011;52002;49.760;6.512;2023-08-30T08:18:35;13.80;;;7.00;;
65393;SDS011;52002;49.760;6.512;2023-08-30T08:21:00;10.50;;;6.20;;
65393;SDS011;52002;49.760;6.512;2023-08-30T08:23:26;10.40;;;6.50;;
65393;SDS011;52002;49.760;6.512;2023-08-30T08:25:56;8.50;;;5.80;;
65393;SDS011;52002;49.760;6.512;2023-08-30T08:28:22;16.30;;;6.40;;
65393;SDS011;52002;49.760;6.512;2023-08-30T08:30:48;12.40;;;6.00;;
65393;SDS011;52002;49.760;6.512;2023-08-30T08:33:16;13.70;;;5.30;;
65393;SDS011;52002;49.760;6.512;2023-08-30T08:35:47;10.90;;;5.70;;
65393;SDS011;52002;49.760;6.512;2023-08-30T08:38:13;8.00;;;5.70;;
65393;SDS011;52002;49.760;6.512;2023-08-30T08:40:38;9.80;;;5.60;;
65393;SDS011;52002;49.760;6.512;2023-08-30T08:43:04;7.10;;;5.40;;
65393;SDS011;52002;49.760;6.512;2023-08-30T08:45:31;9.00;;;5.40;;
65393;SDS011;52002;49.760;6.512;2023-08-30T08:48:02;10.50;;;6.00;;
65393;SDS011;52002;49.760;6.512;2023-08-30T08:50:29;10.60;;;6.10;;
65393;SDS011;52002;49.760;6.512;2023-08-30T08:52:55;9.20;;;5.70;;
65393;SDS011;52002;49.760;6.512;2023-08-30T08:55:21;8.40;;;5.50;;
65393;SDS011;52002;49.760;6.512;2023-08-30T08:57:47;8.90;;;5.80;;
65393;SDS011;52002;49.760;6.512;2023-08-30T09:00:13;8.30;;;5.20;;
65393;SDS011;52002;49.760;6.512;2023-08-30T09:02:39;6.90;;;5.50;;
65393;SDS011;52002;49.760;6.512;2023-08-30T09:05:07;7.30;;;5.00;;
65393;SDS011;52002;49.760;6.512;2023-08-30T09:07:33;7.70;;;5.00;;
65393;SDS011;52002;49.760;6.512;2023-08-30T09:09:58;7.90;;;4.60;;
65393;SDS011;52002;49.760;6.512;2023-08-30T09:12:24;7.30;;;5.00;;
65393;SDS011;52002;49.760;6.512;2023-08-30T09:14:53;6.80;;;4.50;;
65393;SDS011;52002;49.760;6.512;2023-08-30T09:17:20;9.50;;;4.50;;
65393;SDS011;52002;49.760;6.512;2023-08-30T09:19:46;11.90;;;4.00;;
65393;SDS011;52002;49.760;6.512;2023-08-30T09:22:11;6.40;;;4.20;;
65393;SDS011;52002;49.760;6.512;2023-08-30T09:24:37;5.00;;;4.20;;
65393;SDS011;52002;49.760;6.512;2023-08-30T09:27:04;6.40;;;4.40;;
65393;SDS011;52002;49.760;6.512;2023-08-30T09:29:30;7.50;;;4.00;;
65393;SDS011;52002;49.760;6.512;2023-08-30T09:31:56;7.90;;;4.20;;
65393;SDS011;52002;49.760;6.512;2023-08-30T09:34:23;8.50;;;4.40;;
65393;SDS011;52002;49.760;6.512;2023-08-30T09:36:51;6.80;;;3.90;;
65393;SDS011;52002;49.760;6.512;2023-08-30T09:39:17;5.40;;;4.00;;
65393;SDS011;52002;49.760;6.512;2023-08-30T09:41:46;5.80;;;4.00;;
65393;SDS011;52002;49.760;6.512;2023-08-30T09:44:17;4.50;;;3.80;;
65393;SDS011;52002;49.760;6.512;2023-08-30T09:46:50;9.40;;;4.40;;
65393;SDS011;52002;49.760;6.512;2023-08-30T09:49:21;6.80;;;3.80;;
65393;SDS011;52002;49.760;6.512;2023-08-30T09:51:50;7.40;;;3.50;;
65393;SDS011;52002;49.760;6.512;2023-08-30T09:54:22;9.50;;;3.80;;
65393;SDS011;52002;49.760;6.512;2023-08-30T09:56:49;4.30;;;3.60;;
65393;SDS011;52002;49.760;6.512;2023-08-30T09:59:17;15.70;;;3.40;;
65393;SDS011;52002;49.760;6.512;2023-08-30T10:01:44;6.30;;;3.70;;
65393;SDS011;52002;49.760;6.512;2023-08-30T10:04:19;5.90;;;3.70;;
65393;SDS011;52002;49.760;6.512;2023-08-30T10:06:45;6.00;;;3.60;;
65393;SDS011;52002;49.760;6.512;2023-08-30T10:09:12;3.90;;;3.00;;
65393;SDS011;52002;49.760;6.512;2023-08-30T10:11:38;5.60;;;3.00;;
65393;SDS011;52002;49.760;6.512;2023-08-30T10:14:04;3.20;;;2.90;;
65393;SDS011;52002;49.760;6.512;2023-08-30T10:16:32;5.20;;;3.10;;
65393;SDS011;52002;49.760;6.512;2023-08-30T10:19:08;6.00;;;3.10;;
65393;SDS011;52002;49.760;6.512;2023-08-30T10:21:36;6.60;;;3.70;;
65393;SDS011;52002;49.760;6.512;2023-08-30T10:24:03;5.40;;;3.00;;
65393;SDS011;52002;49.760;6.512;2023-08-30T10:26:32;5.80;;;3.00;;
65393;SDS011;52002;49.760;6.512;2023-08-30T10:28:58;6.40;;;3.50;;
65393;SDS011;52002;49.760;6.512;2023-08-30T10:31:24;4.50;;;3.10;;
65393;SDS011;52002;49.760;6.512;2023-08-30T10:33:55;7.20;;;2.60;;
65393;SDS011;52002;49.760;6.512;2023-08-30T10:36:24;4.40;;;3.30;;
65393;SDS011;52002;49.760;6.512;2023-08-30T10:38:51;7.10;;;3.20;;
65393;SDS011;52002;49.760;6.512;2023-08-30T10:41:21;5.70;;;2.90;;
65393;SDS011;52002;49.760;6.512;2023-08-30T10:43:49;6.50;;;3.00;;
65393;SDS011;52002;49.760;6.512;2023-08-30T10:46:16;6.90;;;3.40;;
65393;SDS011;52002;49.760;6.512;2023-08-30T10:48:42;6.10;;;2.90;;
65393;SDS011;52002;49.760;6.512;2023-08-30T10:51:21;9.10;;;3.00;;
65393;SDS011;52002;49.760;6.512;2023-08-30T10:54:00;6.00;;;3.20;;
65393;SDS011;52002;49.760;6.512;2023-08-30T10:56:29;13.20;;;3.00;;
65393;SDS011;52002;49.760;6.512;2023-08-30T10:58:56;10.40;;;2.60;;
65393;SDS011;52002;49.760;6.512;2023-08-30T11:01:22;7.50;;;2.50;;
65393;SDS011;52002;49.760;6.512;2023-08-30T11:03:48;6.90;;;3.00;;
65393;SDS011;52002;49.760;6.512;2023-08-30T11:06:15;5.40;;;2.20;;
65393;SDS011;52002;49.760;6.512;2023-08-30T11:08:42;5.70;;;1.80;;
65393;SDS011;52002;49.760;6.512;2023-08-30T11:11:09;6.20;;;1.90;;
65393;SDS011;52002;49.760;6.512;2023-08-30T11:13:37;10.40;;;2.20;;
65393;SDS011;52002;49.760;6.512;2023-08-30T11:16:02;3.40;;;1.90;;
65393;SDS011;52002;49.760;6.512;2023-08-30T11:18:36;4.70;;;2.70;;
65393;SDS011;52002;49.760;6.512;2023-08-30T11:21:03;3.60;;;2.20;;
65393;SDS011;52002;49.760;6.512;2023-08-30T11:23:30;8.40;;;2.90;;
65393;SDS011;52002;49.760;6.512;2023-08-30T11:25:55;7.20;;;2.30;;
65393;SDS011;52002;49.760;6.512;2023-08-30T11:28:26;9.10;;;2.20;;
65393;SDS011;52002;49.760;6.512;2023-08-30T11:33:20;8.40;;;2.20;;
65393;SDS011;52002;49.760;6.512;2023-08-30T11:35:48;10.80;;;2.60;;
65393;SDS011;52002;49.760;6.512;2023-08-30T11:38:16;7.70;;;2.10;;
65393;SDS011;52002;49.760;6.512;2023-08-30T11:40:43;4.40;;;2.10;;
65393;SDS011;52002;49.760;6.512;2023-08-30T11:43:08;7.10;;;2.20;;
65393;SDS011;52002;49.760;6.512;2023-08-30T11:45:35;4.10;;;2.10;;
65393;SDS011;52002;49.760;6.512;2023-08-30T11:48:00;7.70;;;2.20;;
65393;SDS011;52002;49.760;6.512;2023-08-30T11:50:26;5.80;;;2.20;;
65393;SDS011;52002;49.760;6.512;2023-08-30T11:52:52;5.20;;;2.00;;
65393;SDS011;52002;49.760;6.512;2023-08-30T11:55:19;4.80;;;2.30;;
65393;SDS011;52002;49.760;6.512;2023-08-30T11:57:48;9.70;;;2.50;;
65393;SDS011;52002;49.760;6.512;2023-08-30T12:00:15;4.70;;;2.20;;
65393;SDS011;52002;49.760;6.512;2023-08-30T12:02:43;8.00;;;2.30;;
65393;SDS011;52002;49.760;6.512;2023-08-30T12:05:10;7.60;;;2.00;;
65393;SDS011;52002;49.760;6.512;2023-08-30T12:07:37;4.50;;;1.90;;
65393;SDS011;52002;49.760;6.512;2023-08-30T12:10:20;6.20;;;1.90;;
65393;SDS011;52002;49.760;6.512;2023-08-30T12:12:46;3.80;;;2.20;;
65393;SDS011;52002;49.760;6.512;2023-08-30T12:15:11;12.10;;;2.00;;
65393;SDS011;52002;49.760;6.512;2023-08-30T12:17:37;7.10;;;1.90;;
65393;SDS011;52002;49.760;6.512;2023-08-30T12:20:03;12.30;;;2.10;;
65393;SDS011;52002;49.760;6.512;2023-08-30T12:22:38;9.40;;;2.30;;
65393;SDS011;52002;49.760;6.512;2023-08-30T12:25:21;9.80;;;2.20;;
65393;SDS011;52002;49.760;6.512;2023-08-30T12:27:48;5.80;;;2.50;;
65393;SDS011;52002;49.760;6.512;2023-08-30T12:30:14;7.20;;;2.10;;
65393;SDS011;52002;49.760;6.512;2023-08-30T12:32:41;9.20;;;2.30;;
65393;SDS011;52002;49.760;6.512;2023-08-30T12:35:07;8.00;;;2.10;;
65393;SDS011;52002;49.760;6.512;2023-08-30T12:37:33;5.90;;;1.90;;
65393;SDS011;52002;49.760;6.512;2023-08-30T12:39:59;6.40;;;2.00;;
65393;SDS011;52002;49.760;6.512;2023-08-30T12:42:25;9.50;;;2.00;;
65393;SDS011;52002;49.760;6.512;2023-08-30T12:44:51;6.80;;;2.10;;
65393;SDS011;52002;49.760;6.512;2023-08-30T12:47:17;6.70;;;2.30;;
65393;SDS011;52002;49.760;6.512;2023-08-30T12:49:42;5.30;;;1.90;;
65393;SDS011;52002;49.760;6.512;2023-08-30T12:52:07;2.70;;;2.00;;
65393;SDS011;52002;49.760;6.512;2023-08-30T12:54:32;5.90;;;1.60;;
65393;SDS011;52002;49.760;6.512;2023-08-30T12:56:58;6.40;;;1.90;;
65393;SDS011;52002;49.760;6.512;2023-08-30T12:59:23;4.30;;;2.20;;
65393;SDS011;52002;49.760;6.512;2023-08-30T13:01:49;15.60;;;2.70;;
65393;SDS011;52002;49.760;6.512;2023-08-30T13:04:14;4.70;;;2.10;;
65393;SDS011;52002;49.760;6.512;2023-08-30T13:06:40;7.70;;;2.50;;
65393;SDS011;52002;49.760;6.512;2023-08-30T13:09:05;4.00;;;2.40;;
65393;SDS011;52002;49.760;6.512;2023-08-30T13:11:30;2.90;;;2.00;;
65393;SDS011;52002;49.760;6.512;2023-08-30T13:13:57;4.30;;;2.30;;
65393;SDS011;52002;49.760;6.512;2023-08-30T13:16:23;5.40;;;2.40;;
65393;SDS011;52002;49.760;6.512;2023-08-30T13:18:49;3.60;;;2.10;;
65393;SDS011;52002;49.760;6.512;2023-08-30T13:21:14;6.60;;;2.30;;
65393;SDS011;52002;49.760;6.512;2023-08-30T13:23:39;5.80;;;2.50;;
65393;SDS011;52002;49.760;6.512;2023-08-30T13:26:04;3.90;;;2.60;;
65393;SDS011;52002;49.760;6.512;2023-08-30T13:28:30;4.00;;;2.20;;
65393;SDS011;52002;49.760;6.512;2023-08-30T13:30:55;5.60;;;2.50;;
65393;SDS011;52002;49.760;6.512;2023-08-30T13:33:21;5.00;;;1.80;;
65393;SDS011;52002;49.760;6.512;2023-08-30T13:35:49;3.10;;;1.90;;
65393;SDS011;52002;49.760;6.512;2023-08-30T13:38:18;2.80;;;1.80;;
65393;SDS011;52002;49.760;6.512;2023-08-30T13:40:44;5.20;;;1.70;;
65393;SDS011;52002;49.760;6.512;2023-08-30T13:43:10;3.00;;;1.80;;
65393;SDS011;52002;49.760;6.512;2023-08-30T13:45:35;4.10;;;1.70;;
65393;SDS011;52002;49.760;6.512;2023-08-30T13:48:00;2.60;;;1.70;;
65393;SDS011;52002;49.760;6.512;2023-08-30T13:50:26;2.50;;;1.50;;
65393;SDS011;52002;49.760;6.512;2023-08-30T13:52:55;3.00;;;1.60;;
65393;SDS011;52002;49.760;6.512;2023-08-30T13:55:21;2.60;;;1.40;;
65393;SDS011;52002;49.760;6.512;2023-08-30T13:57:47;2.30;;;1.50;;
65393;SDS011;52002;49.760;6.512;2023-08-30T14:00:12;1.80;;;1.50;;
65393;SDS011;52002;49.760;6.512;2023-08-30T14:02:38;2.30;;;1.40;;
65393;SDS011;52002;49.760;6.512;2023-08-30T14:05:04;2.70;;;1.20;;
65393;SDS011;52002;49.760;6.512;2023-08-30T14:07:30;2.20;;;1.20;;
65393;SDS011;52002;49.760;6.512;2023-08-30T14:09:56;1.40;;;1.30;;
65393;SDS011;52002;49.760;6.512;2023-08-30T14:12:22;2.20;;;1.20;;
65393;SDS011;52002;49.760;6.512;2023-08-30T14:14:48;3.20;;;1.10;;
65393;SDS011;52002;49.760;6.512;2023-08-30T14:17:13;1.30;;;1.20;;
65393;SDS011;52002;49.760;6.512;2023-08-30T14:19:38;1.30;;;1.20;;
65393;SDS011;52002;49.760;6.512;2023-08-30T14:22:04;1.60;;;1.00;;
65393;SDS011;52002;49.760;6.512;2023-08-30T14:24:31;1.80;;;0.90;;
65393;SDS011;52002;49.760;6.512;2023-08-30T14:26:57;1.80;;;0.90;;
65393;SDS011;52002;49.760;6.512;2023-08-30T14:29:23;3.10;;;1.10;;
65393;SDS011;52002;49.760;6.512;2023-08-30T14:31:48;1.30;;;0.80;;
65393;SDS011;52002;49.760;6.512;2023-08-30T14:34:13;3.10;;;1.20;;
65393;SDS011;52002;49.760;6.512;2023-08-30T14:36:39;0.90;;;0.90;;
65393;SDS011;52002;49.760;6.512;2023-08-30T14:39:05;2.40;;;0.70;;
65393;SDS011;52002;49.760;6.512;2023-08-30T14:41:31;0.80;;;0.80;;
65393;SDS011;52002;49.760;6.512;2023-08-30T14:43:57;2.10;;;0.90;;
65393;SDS011;52002;49.760;6.512;2023-08-30T14:46:23;2.00;;;0.90;;